createdAt,value
2022-08-26T00:00:33.569Z,62.77
2022-08-26T00:06:30.321Z,62.61
2022-08-26T00:13:26.837Z,62.56
2022-08-26T00:15:58.645Z,63.23
2022-08-26T08:09:06.710Z,58.94
2022-08-26T11:44:53.866Z,51.88
2022-08-26T11:47:34.899Z,51.74
2022-08-26T13:33:41.244Z,46.72
2022-08-26T13:51:37.958Z,48.62
2022-08-26T13:54:10.665Z,48.95
2022-08-26T13:56:39.237Z,48.96
2022-08-26T13:59:28.178Z,49.00
2022-08-26T14:01:58.836Z,48.87
2022-08-26T14:04:30.005Z,47.46
2022-08-26T14:07:04.317Z,47.68
2022-08-26T14:09:45.197Z,46.93
2022-08-26T14:12:36.463Z,46.88
2022-08-26T16:53:00.404Z,53.62
2022-08-26T16:55:28.606Z,53.82
2022-08-26T16:57:57.030Z,54.20
2022-08-26T17:00:28.308Z,52.87
2022-08-26T17:02:56.219Z,53.79
2022-08-26T17:05:25.599Z,53.37
2022-08-26T17:07:53.776Z,52.77
2022-08-26T17:10:28.162Z,53.15
2022-08-26T17:12:57.602Z,53.83
2022-08-26T17:15:26.035Z,54.13
2022-08-26T17:17:54.757Z,53.68
2022-08-26T17:20:23.983Z,54.20
2022-08-26T17:22:54.491Z,53.50
2022-08-26T17:25:30.459Z,54.11
2022-08-26T17:27:58.770Z,54.17
2022-08-26T17:30:26.898Z,54.37
2022-08-26T17:32:55.547Z,54.10
2022-08-26T17:35:33.346Z,54.12
2022-08-26T17:38:04.302Z,54.12
2022-08-26T17:40:34.744Z,54.57
2022-08-26T17:43:02.578Z,55.45
2022-08-26T17:45:30.827Z,54.91
2022-08-26T17:47:58.643Z,55.07
2022-08-26T17:50:26.506Z,55.12
2022-08-26T17:52:54.464Z,54.36
2022-08-26T17:55:22.290Z,55.03
2022-08-26T17:57:55.486Z,54.74
2022-08-26T18:00:26.505Z,54.60
2022-08-26T18:02:55.071Z,54.84
2022-08-26T18:05:23.644Z,54.97
2022-08-26T18:07:52.407Z,55.19
2022-08-26T18:10:21.639Z,54.92
2022-08-26T18:12:50.164Z,55.40
2022-08-26T18:15:24.792Z,55.72
2022-08-26T18:17:52.583Z,55.07
2022-08-26T18:20:20.904Z,55.48
2022-08-26T18:22:49.135Z,55.49
2022-08-26T18:25:18.022Z,55.82
2022-08-26T18:27:45.838Z,55.12
2022-08-26T18:30:16.927Z,55.48
2022-08-26T18:32:46.315Z,55.93
2022-08-26T18:35:14.788Z,55.57
2022-08-26T18:37:44.454Z,56.12
2022-08-26T18:40:17.166Z,56.03
2022-08-26T18:42:45.000Z,56.11
2022-08-26T18:45:17.673Z,56.31
2022-08-26T18:47:47.360Z,55.82
2022-08-26T18:50:16.949Z,56.24
2022-08-26T18:52:45.129Z,55.63
2022-08-26T18:55:13.264Z,55.91
2022-08-26T18:57:41.153Z,55.99
2022-08-26T19:00:14.364Z,56.11
2022-08-26T19:02:42.562Z,56.71
2022-08-26T19:05:20.945Z,55.96
2022-08-26T19:07:48.939Z,55.95
2022-08-26T19:10:16.956Z,55.95
2022-08-26T19:12:44.950Z,56.35
2022-08-26T19:15:13.406Z,55.73
2022-08-26T19:17:41.297Z,55.99
2022-08-26T19:20:10.839Z,56.50
2022-08-26T19:22:40.090Z,55.77
2022-08-26T19:25:08.733Z,56.33
2022-08-26T19:27:36.505Z,56.06
2022-08-26T19:30:05.238Z,56.33
2022-08-26T19:32:33.043Z,55.45
2022-08-26T19:35:00.906Z,56.27
2022-08-26T19:37:29.253Z,55.71
2022-08-26T19:39:58.406Z,55.96
2022-08-26T19:42:26.719Z,55.74
2022-08-26T19:45:24.473Z,56.07
2022-08-26T19:47:53.443Z,55.95
2022-08-26T19:50:21.961Z,55.80
2022-08-26T19:52:50.106Z,56.05
2022-08-26T19:55:20.881Z,56.06
2022-08-26T19:57:48.851Z,55.96
2022-08-26T20:00:20.878Z,56.50
2022-08-26T20:02:49.212Z,56.08
2022-08-26T20:05:20.375Z,56.01
2022-08-26T20:07:48.920Z,56.34
2022-08-26T20:10:21.658Z,56.32
2022-08-26T20:12:52.187Z,56.84
2022-08-26T20:15:23.905Z,56.09
2022-08-26T20:17:55.301Z,56.09
2022-08-26T20:20:40.752Z,56.79
2022-08-26T20:23:09.112Z,56.39
2022-08-26T20:25:38.431Z,56.47
2022-08-26T20:28:06.445Z,56.22
2022-08-26T20:30:34.339Z,56.81
2022-08-26T20:33:02.220Z,56.30
2022-08-26T20:35:30.125Z,57.16
2022-08-26T20:37:57.996Z,56.98
2022-08-26T20:40:26.176Z,56.26
2022-08-26T20:42:55.483Z,56.25
2022-08-26T20:45:23.570Z,56.83
2022-08-26T20:47:52.412Z,56.75
2022-08-26T20:50:20.298Z,57.17
2022-08-26T20:52:48.384Z,57.47
2022-08-26T20:55:16.496Z,57.43
2022-08-26T20:57:44.484Z,57.37
2022-08-26T21:00:16.248Z,57.18
2022-08-26T21:02:46.213Z,57.40
2022-08-26T21:05:14.301Z,56.84
2022-08-26T21:07:42.323Z,57.15
2022-08-26T21:10:11.601Z,57.01
2022-08-26T21:12:39.396Z,57.47
2022-08-26T21:15:08.371Z,57.69
2022-08-26T21:17:37.636Z,58.03
2022-08-26T21:20:05.993Z,57.76
2022-08-26T21:22:34.007Z,57.38
2022-08-26T21:25:02.010Z,57.84
2022-08-26T21:27:29.900Z,57.76
2022-08-26T21:29:57.978Z,58.17
2022-08-26T21:32:25.795Z,57.80
2022-08-26T21:34:56.898Z,58.10
2022-08-26T21:37:25.820Z,58.20
2022-08-26T21:39:55.242Z,58.42
2022-08-26T21:42:24.326Z,57.92
2022-08-26T21:44:53.274Z,57.95
2022-08-26T21:47:21.944Z,58.12
2022-08-26T21:49:50.310Z,58.79
2022-08-26T21:52:19.901Z,58.82
2022-08-26T21:54:49.579Z,58.27
2022-08-26T21:57:18.264Z,58.54
2022-08-26T21:59:46.237Z,58.82
2022-08-26T22:02:14.069Z,59.12
2022-08-26T22:04:45.624Z,59.05
2022-08-26T22:07:17.237Z,58.63
2022-08-26T22:09:46.965Z,59.03
2022-08-26T22:12:18.174Z,58.82
2022-08-26T22:14:46.957Z,58.71
2022-08-26T22:17:14.907Z,59.36
2022-08-26T22:19:46.168Z,59.31
2022-08-26T22:22:15.537Z,59.27
2022-08-26T22:24:44.220Z,59.50
2022-08-26T22:27:14.953Z,58.99
2022-08-26T22:29:42.823Z,59.48
2022-08-26T22:32:11.097Z,59.18
2022-08-26T22:34:39.126Z,59.95
2022-08-26T22:37:07.204Z,60.20
2022-08-26T22:39:35.022Z,59.21
2022-08-26T22:42:03.887Z,60.25
2022-08-26T22:44:36.320Z,60.17
2022-08-26T22:47:04.355Z,59.62
2022-08-26T22:49:32.273Z,60.18
2022-08-26T22:52:00.137Z,60.09
2022-08-26T22:54:28.134Z,60.01
2022-08-26T22:56:56.056Z,60.17
2022-08-26T22:59:24.729Z,60.30
2022-08-26T23:01:54.132Z,60.67
2022-08-26T23:04:22.011Z,60.32
2022-08-26T23:06:50.112Z,60.22
2022-08-26T23:09:19.290Z,60.50
2022-08-26T23:11:48.633Z,60.30
2022-08-26T23:14:18.070Z,60.31
2022-08-26T23:16:46.054Z,60.50
2022-08-26T23:19:16.836Z,60.65
2022-08-26T23:21:45.471Z,60.64
2022-08-26T23:24:14.407Z,60.65
2022-08-26T23:26:43.518Z,61.41
2022-08-26T23:29:13.523Z,60.79
2022-08-26T23:31:42.794Z,61.34
2022-08-26T23:34:29.360Z,61.04
2022-08-26T23:36:59.268Z,61.21
2022-08-26T23:39:28.881Z,61.31
2022-08-26T23:41:57.313Z,61.05
2022-08-26T23:44:26.395Z,60.86
2022-08-26T23:46:54.334Z,61.48
2022-08-26T23:49:22.228Z,61.32
2022-08-26T23:52:07.510Z,60.95
2022-08-26T23:54:37.008Z,61.44
2022-08-26T23:57:05.528Z,61.55
2022-08-26T23:59:33.829Z,61.51
